Portada
METAR-TAF:

METAR-TAF

Aeroports :

Mountain Home, Arkansas, Estats Units d'Amèrica

latitud: 36-22-14N, longitud: 092-28-19W, altitud: 282 m

Observació

L'informe es va fer fa 50 minuts, a les 04:53 UTC
Vent calma
Temperatura 23°C
Humitat 73%
Pressió 1020 hPa
Visibilitat: 16.1 km
Cel clar

METAR: KBPK 220453Z AUTO 00000KT 10SM CLR 23/18 A3012 RMK AO2 SLP188 T02280183

Hora: 00:43 (05:43 UTC)

Pronòstic

L'informe es va fer fa 18 minuts, a les 05:25 UTC
Pronòstic vàlid del 22 a les 06 UTC al 23 a les 06 UTC
Vent kt del Nord
Visibilitat: 10 km
Núvols disperses a una alçada de 25000 ft
A partir de les 22 a les 1500 UTC
Vent 8 kt del Sud-Oest
Visibilitat: 10 km
Núvols disperses a una alçada de 5000 ft
A partir de les 23 a les 0100 UTC
Vent 3 kt del Sud/Sud-Oest
Visibilitat: 10 km
Núvols disperses a una alçada de 25000 ft

TAF: KBPK 220525Z 2206/2306 00000KT P6SM SCT250 FM221500 22008KT P6SM SCT050 FM230100 21003KT P6SM SCT250

Observacions i pronòstics meteorològics de més de 4000 aeroports (METAR i TAF).

Les estacions disponibles són els punts grocs i vermells al mapa.

Posi el ratolí al punt desitjat per veure el nom de l'estació.

Feu clic per veure les observacions i els pronòstics meteorològics.

Per canviar el mapa: feu clic els botons verds amb una creu de color negre per apropar; al botó verd amb un guió per allunyar la imatge; o en les fletxes verdes per a mapes adjacents.


METAR-TAF: